Time;durP1;ratioP1;P1;durP2;ratioP2;P2;SDS_P1;SDS_P2;PMS_P1;PMS_P2;Temp;Humidity;BMP_temperature;BMP_pressure;BME280_temperature;BME280_humidity;BME280_pressure;Samples;Min_cycle;Max_cycle;Signal;HPM_P1;HPM_P2
2022/06/04 00:00:38;;;;;;;4.78;2.50;;;17.00;99.90;;;;;;5073908;28;20374;-85
2022/06/04 00:03:05;;;;;;;3.70;2.33;;;16.90;99.90;;;;;;5073074;28;20394;-82
2022/06/04 00:05:35;;;;;;;3.97;2.70;;;16.90;99.90;;;;;;5072418;28;20371;-85
2022/06/04 00:08:02;;;;;;;4.00;2.45;;;16.90;99.90;;;;;;5073687;28;20374;-82
2022/06/04 00:16:04;;;;;;;3.27;2.67;;;16.90;99.90;;;;;;5072971;28;20389;-86
2022/06/04 00:18:30;;;;;;;4.50;2.83;;;16.90;99.90;;;;;;5075298;28;20397;-86
2022/06/04 00:20:56;;;;;;;4.70;2.50;;;16.80;99.90;;;;;;5071758;28;20374;-87
2022/06/04 00:23:23;;;;;;;3.88;2.60;;;16.80;99.90;;;;;;5084429;28;20483;-83
2022/06/04 00:25:52;;;;;;;3.77;2.73;;;16.70;99.90;;;;;;5074684;28;20435;-84
2022/06/04 00:28:20;;;;;;;6.05;2.95;;;16.80;99.90;;;;;;5088942;28;20373;-83
2022/06/04 00:30:46;;;;;;;4.40;2.92;;;16.70;99.90;;;;;;5083772;28;20389;-85
2022/06/04 00:33:13;;;;;;;4.15;2.92;;;16.70;99.90;;;;;;5093705;28;20383;-84
2022/06/04 00:35:40;;;;;;;6.63;3.08;;;16.70;99.90;;;;;;5075840;28;20706;-86
2022/06/04 00:38:06;;;;;;;4.40;2.70;;;16.70;99.90;;;;;;5074307;28;20416;-85
2022/06/04 00:40:47;;;;;;;3.55;2.88;;;16.60;99.90;;;;;;5074712;28;20402;-84
2022/06/04 00:43:13;;;;;;;4.68;2.67;;;16.60;99.90;;;;;;5082608;28;20405;-84
2022/06/04 00:46:05;;;;;;;5.32;3.50;;;16.60;99.90;;;;;;5074761;28;20408;-84
2022/06/04 00:48:32;;;;;;;6.55;3.53;;;16.70;99.90;;;;;;5059225;28;20370;-82
2022/06/04 00:50:57;;;;;;;3.60;3.03;;;16.70;99.90;;;;;;5071697;28;20366;-81
2022/06/04 00:53:23;;;;;;;6.70;3.20;;;16.70;99.90;;;;;;5072790;28;20400;-81
2022/06/04 00:56:09;;;;;;;4.33;3.27;;;16.70;99.90;;;;;;5070701;28;20926;-81
2022/06/04 00:59:03;;;;;;;4.80;3.15;;;16.70;99.90;;;;;;5071707;28;20374;-83
2022/06/04 01:01:38;;;;;;;5.55;3.20;;;16.70;99.90;;;;;;5071192;28;20884;-84
2022/06/04 01:04:14;;;;;;;4.57;2.92;;;16.60;99.90;;;;;;5072911;28;20476;-81
2022/06/04 01:07:09;;;;;;;6.00;3.10;;;16.60;99.90;;;;;;5073111;28;20402;-84
2022/06/04 01:09:54;;;;;;;3.78;2.90;;;16.60;99.90;;;;;;5074251;28;20394;-82
2022/06/04 01:12:52;;;;;;;4.30;2.80;;;16.50;99.90;;;;;;5070565;28;20787;-84
2022/06/04 01:15:38;;;;;;;7.13;2.97;;;16.60;99.90;;;;;;5072594;28;20385;-84
2022/06/04 01:18:13;;;;;;;4.50;2.78;;;16.50;99.90;;;;;;5071710;28;20898;-83
2022/06/04 01:20:58;;;;;;;5.93;3.00;;;16.50;99.90;;;;;;5071468;28;20394;-84
2022/06/04 01:23:36;;;;;;;4.40;3.08;;;16.50;99.90;;;;;;5071426;28;20402;-82
2022/06/04 01:26:01;;;;;;;4.43;3.00;;;16.40;99.90;;;;;;5071019;28;20402;-83
2022/06/04 01:28:29;;;;;;;5.40;3.00;;;16.40;99.90;;;;;;5070434;28;20982;-85
2022/06/04 01:31:00;;;;;;;4.25;2.90;;;16.40;99.90;;;;;;5071989;28;20393;-85
2022/06/04 01:33:42;;;;;;;3.97;3.00;;;16.40;99.90;;;;;;5072172;28;20370;-84
2022/06/04 01:36:17;;;;;;;3.63;2.80;;;16.30;99.90;;;;;;5070136;28;20409;-85
2022/06/04 01:39:14;;;;;;;4.88;2.90;;;16.30;99.90;;;;;;5072815;28;20386;-86
2022/06/04 01:41:56;;;;;;;3.85;2.63;;;16.30;99.90;;;;;;5070789;28;20936;-84
2022/06/04 01:44:27;;;;;;;5.07;2.80;;;16.30;99.90;;;;;;5070323;28;20455;-84
2022/06/04 01:46:57;;;;;;;4.82;3.10;;;16.20;99.90;;;;;;5073195;28;20852;-87
2022/06/04 01:49:46;;;;;;;4.68;2.95;;;16.20;99.90;;;;;;5071345;28;20374;-85
2022/06/04 01:52:32;;;;;;;3.63;3.03;;;16.20;99.90;;;;;;5070527;28;20431;-82
2022/06/04 01:55:12;;;;;;;4.28;3.05;;;16.20;99.90;;;;;;5070363;28;20408;-83
2022/06/04 01:57:49;;;;;;;3.72;3.05;;;16.20;99.90;;;;;;5073472;28;20381;-83
2022/06/04 02:00:27;;;;;;;5.25;2.88;;;16.10;99.90;;;;;;5070983;28;20374;-83
2022/06/04 02:03:05;;;;;;;5.28;3.05;;;16.10;99.90;;;;;;5071584;28;20898;-86
2022/06/04 02:06:03;;;;;;;6.63;2.97;;;16.10;99.90;;;;;;5070954;28;20436;-84
2022/06/04 02:08:34;;;;;;;5.32;2.85;;;16.20;99.90;;;;;;5071499;28;20417;-84
2022/06/04 02:11:21;;;;;;;6.25;2.70;;;16.20;99.90;;;;;;5071865;28;20474;-84
2022/06/04 02:13:49;;;;;;;3.70;3.10;;;16.10;99.90;;;;;;5069992;28;20783;-83
2022/06/04 02:16:38;;;;;;;4.00;2.83;;;16.10;99.90;;;;;;5073328;28;20465;-83
2022/06/04 02:19:04;;;;;;;3.20;2.83;;;16.10;99.90;;;;;;5072458;28;20403;-84
2022/06/04 02:21:31;;;;;;;5.40;2.77;;;16.10;99.90;;;;;;5073729;28;20393;-83
2022/06/04 02:23:57;;;;;;;3.90;2.90;;;16.10;99.90;;;;;;5074577;28;20402;-83
2022/06/04 02:26:24;;;;;;;3.45;3.00;;;16.00;99.90;;;;;;5075088;28;20382;-83
2022/06/04 02:28:51;;;;;;;5.33;2.90;;;16.00;99.90;;;;;;5075040;28;20378;-85
2022/06/04 02:31:42;;;;;;;4.35;2.63;;;16.00;99.90;;;;;;5076469;28;20384;-82
2022/06/04 02:34:13;;;;;;;3.75;2.92;;;16.00;99.90;;;;;;5076987;28;20420;-87
2022/06/04 02:36:49;;;;;;;5.65;3.28;;;16.00;99.90;;;;;;5073767;28;20415;-85
2022/06/04 02:39:32;;;;;;;5.43;2.87;;;15.90;99.90;;;;;;5075809;28;20933;-83
2022/06/04 02:42:06;;;;;;;3.27;2.90;;;16.00;99.90;;;;;;5074969;28;20401;-83
2022/06/04 02:44:39;;;;;;;7.82;3.17;;;16.00;99.90;;;;;;5075675;28;20397;-81
2022/06/04 02:47:09;;;;;;;3.47;2.70;;;15.90;99.90;;;;;;5073715;28;20386;-82
2022/06/04 02:50:09;;;;;;;4.97;3.00;;;15.90;99.90;;;;;;5074980;28;20374;-83
2022/06/04 02:52:36;;;;;;;4.32;2.88;;;16.00;99.90;;;;;;5076205;28;20414;-84
2022/06/04 02:55:10;;;;;;;5.13;3.00;;;15.90;99.90;;;;;;5075281;28;20362;-84
2022/06/04 02:57:41;;;;;;;7.85;3.50;;;15.90;99.90;;;;;;5074247;28;20390;-81
2022/06/04 03:00:10;;;;;;;4.47;3.05;;;15.90;99.90;;;;;;5057217;28;20766;-83
2022/06/04 03:02:36;;;;;;;3.50;2.77;;;15.90;99.90;;;;;;5075613;28;20895;-83
2022/06/04 03:05:14;;;;;;;5.30;2.78;;;15.90;99.90;;;;;;5077596;28;20374;-84
2022/06/04 03:07:44;;;;;;;4.55;2.83;;;15.90;99.90;;;;;;5075352;28;20383;-84
2022/06/04 03:10:19;;;;;;;4.50;3.00;;;15.90;99.90;;;;;;5073014;28;20409;-84
2022/06/04 03:12:47;;;;;;;3.78;2.70;;;15.90;99.90;;;;;;5072749;28;20460;-84
2022/06/04 03:15:13;;;;;;;4.40;2.80;;;15.90;99.90;;;;;;5074967;28;20452;-83
2022/06/04 03:17:42;;;;;;;3.60;3.08;;;15.90;99.90;;;;;;5073541;28;20937;-82
2022/06/04 03:20:09;;;;;;;19.65;4.68;;;15.80;99.90;;;;;;5074328;28;20393;-83
2022/06/04 03:22:35;;;;;;;33.28;6.30;;;15.80;99.90;;;;;;5074970;28;20385;-84
2022/06/04 03:25:01;;;;;;;14.75;3.80;;;15.70;99.90;;;;;;5073158;28;20370;-83
2022/06/04 03:27:27;;;;;;;6.75;3.28;;;15.70;99.90;;;;;;5074713;28;20383;-86
2022/06/04 03:29:52;;;;;;;6.10;3.40;;;15.80;99.90;;;;;;5077051;28;20377;-82
2022/06/04 03:32:19;;;;;;;4.13;2.77;;;15.80;99.90;;;;;;5073663;28;20386;-84
2022/06/04 03:34:45;;;;;;;3.22;2.72;;;15.70;99.90;;;;;;5076184;28;20386;-83
2022/06/04 03:37:11;;;;;;;4.30;2.90;;;15.70;99.90;;;;;;5075109;28;20389;-85
2022/06/04 03:39:37;;;;;;;4.53;2.70;;;15.80;99.90;;;;;;5072281;28;20389;-83
2022/06/04 03:42:04;;;;;;;5.55;3.10;;;15.90;99.90;;;;;;5072159;28;20503;-82
2022/06/04 03:44:29;;;;;;;5.40;3.13;;;15.80;99.90;;;;;;5072368;28;20402;-84
2022/06/04 03:46:55;;;;;;;4.75;2.88;;;15.90;99.90;;;;;;5072376;28;20359;-83
2022/06/04 03:49:21;;;;;;;4.80;2.60;;;15.90;99.90;;;;;;5071824;28;20531;-84
2022/06/04 03:51:47;;;;;;;6.70;2.97;;;15.80;99.90;;;;;;5073143;28;20412;-84
2022/06/04 03:54:13;;;;;;;5.13;2.80;;;15.80;99.90;;;;;;5070551;28;20431;-83
2022/06/04 03:56:40;;;;;;;4.30;2.88;;;15.90;99.90;;;;;;5071664;28;20382;-85
2022/06/04 03:59:05;;;;;;;5.50;2.80;;;15.90;99.90;;;;;;5070890;28;20854;-81
2022/06/04 04:01:31;;;;;;;5.00;2.80;;;15.90;99.90;;;;;;5075806;28;20381;-82
2022/06/04 04:03:59;;;;;;;4.05;2.50;;;15.80;99.90;;;;;;5075770;28;20934;-83
2022/06/04 04:06:31;;;;;;;5.20;2.50;;;15.70;99.90;;;;;;5074287;28;20370;-81
2022/06/04 04:08:57;;;;;;;3.70;2.63;;;15.80;99.90;;;;;;5074479;28;20420;-83
2022/06/04 04:11:26;;;;;;;5.43;2.60;;;15.70;99.90;;;;;;5072908;28;20791;-84
2022/06/04 04:13:52;;;;;;;4.55;2.50;;;15.70;99.90;;;;;;5071420;28;20378;-82
2022/06/04 04:16:21;;;;;;;4.50;2.42;;;15.80;99.90;;;;;;5071824;28;20410;-83
2022/06/04 04:18:47;;;;;;;4.13;2.63;;;15.90;99.90;;;;;;5072470;28;20377;-84
2022/06/04 04:21:15;;;;;;;3.83;2.60;;;15.90;99.90;;;;;;5072309;28;20431;-83
2022/06/04 04:23:41;;;;;;;4.65;2.35;;;15.90;99.90;;;;;;5073831;28;20405;-85
2022/06/04 04:26:09;;;;;;;4.75;2.60;;;15.90;99.90;;;;;;5073217;28;20374;-85
2022/06/04 04:28:35;;;;;;;4.80;2.72;;;16.00;99.90;;;;;;5071087;28;20440;-88
2022/06/04 04:31:00;;;;;;;3.87;2.13;;;16.00;99.90;;;;;;5073293;28;20974;-84
2022/06/04 04:33:26;;;;;;;4.25;2.55;;;16.00;99.90;;;;;;5073021;28;20502;-83
2022/06/04 04:35:52;;;;;;;3.42;2.40;;;16.10;99.90;;;;;;5071831;28;20375;-84
2022/06/04 04:38:18;;;;;;;3.15;2.58;;;16.20;99.90;;;;;;5072225;28;20867;-83
2022/06/04 04:40:45;;;;;;;4.40;2.50;;;16.10;99.90;;;;;;5072759;28;20887;-85
2022/06/04 04:43:11;;;;;;;5.07;2.28;;;16.20;99.90;;;;;;5072790;28;20508;-86
2022/06/04 04:45:37;;;;;;;4.70;2.67;;;16.30;99.90;;;;;;5072636;28;20429;-88
2022/06/04 04:48:03;;;;;;;3.20;2.60;;;16.30;99.90;;;;;;5073086;28;20378;-86
2022/06/04 04:50:40;;;;;;;3.70;2.40;;;16.20;99.90;;;;;;5071689;28;21182;-83
2022/06/04 04:53:09;;;;;;;3.42;2.63;;;16.30;99.90;;;;;;5070710;28;20378;-83
2022/06/04 04:55:36;;;;;;;3.88;2.67;;;16.20;99.90;;;;;;5072512;28;20380;-84
2022/06/04 04:58:02;;;;;;;3.88;2.65;;;16.20;99.90;;;;;;5070125;28;20764;-86
2022/06/04 05:00:28;;;;;;;4.50;2.40;;;16.40;99.90;;;;;;5071045;28;20382;-85
2022/06/04 05:02:57;;;;;;;3.53;2.38;;;16.60;99.90;;;;;;5071060;28;20390;-85
2022/06/04 05:05:22;;;;;;;3.70;2.78;;;17.10;99.90;;;;;;5071766;28;20374;-83
2022/06/04 05:07:48;;;;;;;9.68;3.65;;;17.30;99.90;;;;;;5072051;28;20969;-83
2022/06/04 05:10:14;;;;;;;4.70;2.60;;;17.20;99.90;;;;;;5071462;28;20407;-83
2022/06/04 05:12:40;;;;;;;6.57;3.08;;;17.20;99.90;;;;;;5069325;28;20514;-82
2022/06/04 05:15:07;;;;;;;4.13;2.78;;;17.10;99.90;;;;;;5071298;28;20378;-84
2022/06/04 05:17:32;;;;;;;4.10;2.63;;;17.10;99.90;;;;;;5070042;28;20806;-87
2022/06/04 05:19:58;;;;;;;4.60;2.67;;;17.10;99.90;;;;;;5071219;28;20374;-86
2022/06/04 05:22:24;;;;;;;5.13;2.53;;;17.00;99.80;;;;;;5071315;28;20382;-84
2022/06/04 05:24:50;;;;;;;4.17;2.80;;;17.10;99.50;;;;;;5071447;28;20453;-85
2022/06/04 05:27:15;;;;;;;3.73;2.27;;;17.30;99.00;;;;;;5069627;28;20484;-84
2022/06/04 05:29:41;;;;;;;3.50;2.13;;;17.40;99.00;;;;;;5070073;28;20435;-84
2022/06/04 05:32:11;;;;;;;13.23;3.13;;;17.50;98.60;;;;;;5071215;28;20408;-86
2022/06/04 05:34:38;;;;;;;34.97;5.22;;;17.50;98.40;;;;;;5069998;28;20386;-85
2022/06/04 05:37:04;;;;;;;4.38;2.40;;;17.60;98.40;;;;;;5069598;28;20379;-85
2022/06/04 05:39:31;;;;;;;4.22;2.40;;;17.70;98.10;;;;;;5069987;28;20402;-82
2022/06/04 05:41:58;;;;;;;4.07;2.08;;;17.70;97.30;;;;;;5069365;28;20378;-82
2022/06/04 05:44:23;;;;;;;3.70;2.10;;;17.60;98.10;;;;;;5070585;28;20414;-86
2022/06/04 05:46:49;;;;;;;3.80;2.03;;;17.80;97.50;;;;;;5070978;28;20370;-83
2022/06/04 05:49:16;;;;;;;2.33;1.83;;;17.70;96.90;;;;;;5069131;28;20366;-86
2022/06/04 05:51:43;;;;;;;4.60;2.50;;;17.50;97.30;;;;;;5071329;28;20380;-87
2022/06/04 05:54:10;;;;;;;2.92;2.03;;;17.40;97.30;;;;;;5070923;28;20465;-83
2022/06/04 05:56:41;;;;;;;3.38;1.90;;;17.30;97.20;;;;;;5068318;28;20702;-82
2022/06/04 05:59:10;;;;;;;4.13;1.88;;;17.50;97.40;;;;;;5071013;28;20483;-83
2022/06/04 06:01:38;;;;;;;3.53;2.05;;;17.50;97.90;;;;;;5069351;28;20424;-83
2022/06/04 06:04:05;;;;;;;5.07;2.13;;;17.80;97.30;;;;;;5069559;28;20888;-82
2022/06/04 06:06:33;;;;;;;2.90;2.05;;;18.00;97.00;;;;;;5070794;28;20415;-82
2022/06/04 06:09:03;;;;;;;5.43;2.20;;;18.20;97.00;;;;;;5069283;28;20488;-81
2022/06/04 06:11:31;;;;;;;4.00;2.17;;;18.40;95.80;;;;;;5069812;28;20394;-86
2022/06/04 06:13:57;;;;;;;3.05;1.77;;;18.60;96.30;;;;;;5069200;28;20398;-84
2022/06/04 06:16:34;;;;;;;4.90;1.75;;;18.70;95.20;;;;;;5069402;28;20484;-84
2022/06/04 06:18:59;;;;;;;2.77;1.67;;;18.80;94.70;;;;;;5069356;28;20892;-85
2022/06/04 06:21:32;;;;;;;2.28;1.48;;;19.10;94.90;;;;;;5070694;28;20416;-85
2022/06/04 06:23:57;;;;;;;3.15;1.75;;;19.40;94.30;;;;;;5068227;28;20410;-82
2022/06/04 06:26:29;;;;;;;4.65;1.92;;;19.60;93.80;;;;;;5069115;28;20385;-83
2022/06/04 06:28:56;;;;;;;3.72;1.95;;;19.60;93.90;;;;;;5052652;28;20401;-85
2022/06/04 06:31:27;;;;;;;42.40;5.10;;;19.70;93.50;;;;;;5072356;28;20439;-82
2022/06/04 06:33:53;;;;;;;6.00;2.00;;;19.80;93.80;;;;;;5070943;28;20397;-84
2022/06/04 06:36:24;;;;;;;2.97;2.00;;;19.80;93.50;;;;;;5071473;28;20461;-86
2022/06/04 06:38:50;;;;;;;3.22;1.80;;;19.50;93.70;;;;;;5070172;28;20477;-83
2022/06/04 06:41:19;;;;;;;4.30;1.70;;;19.50;94.20;;;;;;5072345;28;20370;-82
2022/06/04 06:43:52;;;;;;;4.13;1.85;;;19.90;94.60;;;;;;5070966;28;20412;-85
2022/06/04 06:46:36;;;;;;;6.88;1.88;;;20.40;93.80;;;;;;5070090;28;20850;-83
2022/06/04 06:49:04;;;;;;;2.85;1.73;;;20.40;93.50;;;;;;5069812;28;20385;-88
2022/06/04 06:51:42;;;;;;;2.88;1.90;;;20.30;93.40;;;;;;5068696;28;20382;-85
2022/06/04 06:54:08;;;;;;;4.00;2.00;;;20.40;94.00;;;;;;5070262;28;20382;-86
2022/06/04 06:56:38;;;;;;;2.35;1.70;;;20.70;92.70;;;;;;5058233;28;20376;-84
2022/06/04 06:59:04;;;;;;;2.90;1.70;;;21.10;92.60;;;;;;5058078;28;20405;-84
2022/06/04 07:01:31;;;;;;;2.90;1.60;;;21.50;91.60;;;;;;5061528;28;20381;-86
2022/06/04 07:03:57;;;;;;;3.00;1.60;;;21.30;91.80;;;;;;5058666;28;20404;-86
2022/06/04 07:06:36;;;;;;;4.13;2.20;;;21.60;92.40;;;;;;5068592;28;20417;-87
2022/06/04 07:09:05;;;;;;;4.10;2.08;;;21.80;91.30;;;;;;5071940;28;20456;-84
2022/06/04 07:11:31;;;;;;;2.25;1.77;;;22.20;91.40;;;;;;5075228;28;20490;-85
2022/06/04 07:13:57;;;;;;;2.53;1.60;;;22.50;89.50;;;;;;5073612;28;20395;-84
2022/06/04 07:16:23;;;;;;;2.73;1.70;;;22.30;89.80;;;;;;5075626;28;20377;-88
2022/06/04 07:18:48;;;;;;;3.60;1.90;;;22.20;90.00;;;;;;5073648;28;20422;-89
2022/06/04 07:21:15;;;;;;;5.63;2.13;;;22.10;89.50;;;;;;5075365;28;20370;-84
2022/06/04 07:23:40;;;;;;;5.77;2.40;;;21.90;90.20;;;;;;5075070;28;20393;-85
2022/06/04 07:26:07;;;;;;;3.63;1.73;;;21.80;90.20;;;;;;5066334;28;20489;-84
2022/06/04 07:28:33;;;;;;;5.15;1.92;;;21.90;90.70;;;;;;5072590;28;20379;-83
2022/06/04 07:30:59;;;;;;;3.28;1.67;;;22.30;90.20;;;;;;5071644;28;20443;-83
2022/06/04 07:33:27;;;;;;;4.65;1.90;;;22.40;90.00;;;;;;5072578;28;20382;-84
2022/06/04 07:35:54;;;;;;;3.87;1.73;;;22.30;89.50;;;;;;5072883;28;20382;-84
2022/06/04 07:38:20;;;;;;;4.18;1.85;;;22.30;90.20;;;;;;5074710;28;20399;-86
2022/06/04 07:40:46;;;;;;;4.18;1.80;;;22.30;90.20;;;;;;5073752;28;20466;-85
2022/06/04 07:43:12;;;;;;;3.28;1.65;;;21.90;90.10;;;;;;5066928;28;20404;-88
2022/06/04 07:45:39;;;;;;;2.70;1.70;;;21.90;90.70;;;;;;5054614;28;20362;-85
2022/06/04 07:48:06;;;;;;;4.30;1.83;;;21.90;90.60;;;;;;5053386;28;20380;-84
2022/06/04 07:50:32;;;;;;;4.05;1.80;;;22.00;91.60;;;;;;5054174;28;20785;-86
2022/06/04 07:52:59;;;;;;;2.20;1.60;;;22.30;90.20;;;;;;5052733;28;20380;-86
2022/06/04 07:55:26;;;;;;;5.60;1.88;;;22.30;90.60;;;;;;5052023;28;20460;-83
2022/06/04 07:57:52;;;;;;;1.83;1.60;;;22.30;89.90;;;;;;5052332;28;20382;-84
2022/06/04 08:00:25;;;;;;;5.47;2.17;;;22.40;89.20;;;;;;5051812;28;20828;-85
2022/06/04 08:02:52;;;;;;;2.33;1.52;;;22.10;89.90;;;;;;5052658;28;20384;-82
2022/06/04 08:05:18;;;;;;;3.80;1.80;;;21.90;90.20;;;;;;5053098;28;20438;-83
2022/06/04 08:07:44;;;;;;;2.58;1.45;;;22.10;90.10;;;;;;5051713;28;20409;-84
2022/06/04 08:10:11;;;;;;;4.43;1.70;;;22.30;90.00;;;;;;5054841;28;20388;-84
2022/06/04 08:12:43;;;;;;;2.03;1.50;;;22.60;90.10;;;;;;5053225;28;20383;-88
2022/06/04 08:15:09;;;;;;;2.23;1.60;;;23.00;88.70;;;;;;5061937;28;20432;-88
2022/06/04 08:17:34;;;;;;;3.90;1.75;;;23.10;87.40;;;;;;5071980;28;20381;-84
2022/06/04 08:20:00;;;;;;;5.85;2.03;;;23.10;87.80;;;;;;5061517;28;20395;-87
2022/06/04 08:22:26;;;;;;;4.00;1.67;;;23.10;86.00;;;;;;5050216;28;20429;-86
2022/06/04 08:24:51;;;;;;;4.20;1.80;;;23.00;86.80;;;;;;5050178;28;20412;-83
2022/06/04 08:27:17;;;;;;;42.43;5.83;;;23.10;86.60;;;;;;5052733;28;20388;-86
2022/06/04 08:29:44;;;;;;;3.45;1.70;;;23.20;87.70;;;;;;5052507;28;20384;-86
2022/06/04 08:32:12;;;;;;;2.88;1.70;;;23.20;85.80;;;;;;5050386;28;20391;-86
2022/06/04 08:34:38;;;;;;;3.83;1.63;;;23.20;86.50;;;;;;5056056;28;20412;-85
2022/06/04 08:37:05;;;;;;;4.40;1.77;;;23.20;84.70;;;;;;5070761;28;20469;-84
2022/06/04 08:39:31;;;;;;;3.92;1.77;;;22.80;85.40;;;;;;5071437;28;20382;-85
2022/06/04 08:42:05;;;;;;;8.13;2.17;;;22.60;87.80;;;;;;5064304;28;20390;-84
2022/06/04 08:44:51;;;;;;;3.60;1.50;;;22.90;89.00;;;;;;5067615;28;20441;-83
2022/06/04 08:47:25;;;;;;;5.13;1.73;;;23.10;87.60;;;;;;5070428;28;20806;-84
2022/06/04 08:50:10;;;;;;;3.40;1.70;;;23.00;86.00;;;;;;5061765;28;20933;-82
2022/06/04 08:52:50;;;;;;;4.38;1.80;;;22.90;87.60;;;;;;5068258;28;20450;-84
2022/06/04 08:59:08;;;;;;;4.40;1.60;;;22.50;86.60;;;;;;5070325;28;20907;-83
2022/06/04 09:01:56;;;;;;;3.50;1.85;;;22.30;89.60;;;;;;5033901;28;20387;-83
2022/06/04 09:04:50;;;;;;;4.55;1.70;;;22.20;89.90;;;;;;5058189;28;20446;-82
2022/06/04 09:07:34;;;;;;;7.18;1.95;;;22.30;90.10;;;;;;5061652;28;20396;-84
2022/06/04 09:10:05;;;;;;;4.65;1.67;;;22.60;88.30;;;;;;5060939;28;20389;-83
2022/06/04 09:12:57;;;;;;;3.50;1.70;;;23.00;89.60;;;;;;5056471;28;20878;-88
2022/06/04 09:15:29;;;;;;;5.23;1.60;;;23.30;84.80;;;;;;5056797;28;20402;-87
2022/06/04 09:17:57;;;;;;;3.55;1.45;;;23.60;86.90;;;;;;5059587;28;20533;-84
2022/06/04 09:20:49;;;;;;;116.53;14.33;;;24.00;84.50;;;;;;5059542;28;20380;-87
2022/06/04 09:23:29;;;;;;;3.22;1.50;;;24.20;83.40;;;;;;5061052;28;20415;-87
2022/06/04 09:26:03;;;;;;;2.50;1.63;;;23.90;83.30;;;;;;5061033;28;20419;-85
2022/06/04 09:28:40;;;;;;;2.78;1.40;;;24.20;86.50;;;;;;5062911;28;20386;-86
2022/06/04 09:31:24;;;;;;;5.57;1.60;;;24.40;82.20;;;;;;5057340;28;20473;-87
2022/06/04 09:33:56;;;;;;;4.03;1.50;;;24.60;82.80;;;;;;5058357;28;20523;-85
2022/06/04 09:36:26;;;;;;;3.85;1.50;;;24.70;82.80;;;;;;5058445;28;20409;-88
2022/06/04 09:39:03;;;;;;;1.77;1.27;;;24.70;81.40;;;;;;5058947;28;20772;-86
2022/06/04 09:41:32;;;;;;;2.58;1.75;;;24.70;81.40;;;;;;5059047;28;20399;-84
2022/06/04 09:44:13;;;;;;;45.72;6.13;;;24.70;83.50;;;;;;5061915;28;20405;-84
2022/06/04 09:46:43;;;;;;;3.63;1.52;;;24.70;83.40;;;;;;5060163;28;20395;-84
2022/06/04 09:49:35;;;;;;;20.73;3.22;;;25.00;82.50;;;;;;5059023;28;20426;-84
2022/06/04 09:52:19;;;;;;;2.72;1.70;;;25.00;82.60;;;;;;5053162;28;20841;-86
2022/06/04 09:54:56;;;;;;;5.95;1.67;;;24.70;84.10;;;;;;5055316;28;20418;-87
2022/06/04 09:57:31;;;;;;;4.00;1.75;;;24.40;81.60;;;;;;5052671;28;20878;-85
2022/06/04 09:59:59;;;;;;;2.75;1.60;;;24.10;81.50;;;;;;5051501;28;20402;-87
2022/06/04 10:02:26;;;;;;;1.70;1.30;;;24.30;82.40;;;;;;5071536;28;20394;-87
2022/06/04 10:05:06;;;;;;;4.35;1.75;;;24.20;81.30;;;;;;5067568;28;20401;-85
2022/06/04 10:07:37;;;;;;;2.05;1.70;;;24.20;80.60;;;;;;5060842;28;20734;-90
2022/06/04 10:10:12;;;;;;;2.63;1.52;;;23.90;81.60;;;;;;5054593;28;21213;-86
2022/06/04 10:15:44;;;;;;;2.58;1.70;;;23.60;83.60;;;;;;5061846;28;20442;-86
2022/06/04 10:18:30;;;;;;;3.28;1.63;;;23.90;83.20;;;;;;5049968;28;20406;-86
2022/06/04 10:21:16;;;;;;;4.28;1.73;;;24.50;82.50;;;;;;5063934;28;20387;-86
2022/06/04 10:23:48;;;;;;;2.50;1.80;;;24.60;81.60;;;;;;5058819;28;20461;-89
2022/06/04 10:26:44;;;;;;;1.95;1.35;;;24.40;81.10;;;;;;5058012;28;20429;-83
2022/06/04 10:29:47;;;;;;;3.75;1.60;;;24.20;82.60;;;;;;5058994;28;20379;-87
2022/06/04 10:32:49;;;;;;;11.40;2.70;;;24.00;81.40;;;;;;5058094;28;20516;-90
2022/06/04 10:35:26;;;;;;;3.03;1.60;;;24.20;81.10;;;;;;5051800;28;20387;-85
2022/06/04 10:38:23;;;;;;;2.30;1.47;;;24.40;81.00;;;;;;5063985;28;20526;-87
2022/06/04 10:41:13;;;;;;;2.03;1.40;;;24.60;82.40;;;;;;5061350;28;20387;-85
2022/06/04 10:43:47;;;;;;;1.83;1.50;;;24.70;81.20;;;;;;5064880;28;20398;-89
2022/06/04 10:46:37;;;;;;;2.10;1.60;;;24.90;79.70;;;;;;5064645;28;20397;-94
2022/06/04 10:49:09;;;;;;;2.37;1.40;;;24.90;81.10;;;;;;5056777;28;20391;-86
2022/06/04 10:51:41;;;;;;;2.92;1.40;;;25.10;78.10;;;;;;5054280;28;20517;-88
2022/06/04 10:54:33;;;;;;;4.28;1.70;;;25.30;80.70;;;;;;5066683;28;20478;-88
2022/06/04 10:57:28;;;;;;;2.38;1.80;;;25.50;79.20;;;;;;5065053;28;20390;-85
2022/06/04 11:00:42;;;;;;;3.58;1.63;;;25.60;77.80;;;;;;5062658;28;20426;-87
2022/06/04 11:03:23;;;;;;;4.35;1.60;;;25.70;78.10;;;;;;5077878;28;20408;-88
2022/06/04 11:06:11;;;;;;;4.03;1.70;;;25.50;78.70;;;;;;5063944;28;20465;-88
2022/06/04 11:08:51;;;;;;;2.70;1.60;;;25.50;77.30;;;;;;5062480;28;20378;-86
2022/06/04 11:11:39;;;;;;;3.80;1.77;;;25.30;78.10;;;;;;5062736;28;20479;-84
2022/06/04 11:14:13;;;;;;;13.90;2.92;;;25.30;79.20;;;;;;5065351;28;20391;-87
2022/06/04 11:16:48;;;;;;;7.43;1.75;;;25.30;79.70;;;;;;5062641;28;20428;-88
2022/06/04 11:19:19;;;;;;;4.43;1.90;;;25.50;78.30;;;;;;5063584;28;20414;-85
2022/06/04 11:21:53;;;;;;;3.08;1.73;;;25.50;77.30;;;;;;5065012;28;20378;-87
2022/06/04 11:24:27;;;;;;;3.20;1.70;;;25.40;79.20;;;;;;5065536;28;20393;-83
2022/06/04 11:27:00;;;;;;;3.90;1.63;;;25.30;77.70;;;;;;5064310;28;20414;-87
2022/06/04 11:29:25;;;;;;;3.00;1.48;;;25.20;78.70;;;;;;5061047;28;20395;-88
2022/06/04 11:32:09;;;;;;;2.00;1.80;;;25.20;79.80;;;;;;5061893;28;20391;-87
2022/06/04 11:34:37;;;;;;;2.35;1.60;;;24.80;78.80;;;;;;5064768;28;20441;-87
2022/06/04 11:37:35;;;;;;;2.00;1.47;;;24.80;79.60;;;;;;5060547;28;20962;-86
2022/06/04 11:40:30;;;;;;;2.70;1.67;;;25.00;80.40;;;;;;5062683;28;20477;-86
2022/06/04 11:43:05;;;;;;;2.13;1.50;;;25.20;81.00;;;;;;5062273;28;20463;-91
2022/06/04 11:45:40;;;;;;;2.33;1.50;;;25.50;78.30;;;;;;5063595;28;20366;-86
2022/06/04 11:48:24;;;;;;;6.00;1.93;;;25.60;76.90;;;;;;5064150;28;20400;-88
2022/06/04 11:51:11;;;;;;;4.10;1.80;;;25.80;78.30;;;;;;5056446;28;20416;-89
2022/06/04 11:53:55;;;;;;;2.47;1.70;;;26.10;77.80;;;;;;5061122;28;20469;-85
2022/06/04 11:56:36;;;;;;;3.05;1.63;;;26.20;75.50;;;;;;5062375;28;20423;-87
2022/06/04 11:59:31;;;;;;;3.78;1.90;;;26.10;77.20;;;;;;5055495;28;20392;-86
2022/06/04 12:02:17;;;;;;;7.13;1.75;;;26.10;76.40;;;;;;5049248;28;20908;-85
2022/06/04 12:05:01;;;;;;;3.83;1.70;;;26.00;75.70;;;;;;5056496;28;20404;-92
2022/06/04 12:07:36;;;;;;;1.83;1.35;;;26.00;78.20;;;;;;5059288;28;20733;-88
2022/06/04 12:10:07;;;;;;;2.00;1.50;;;26.20;78.30;;;;;;5057728;28;20391;-87
2022/06/04 12:12:54;;;;;;;2.70;1.70;;;26.20;78.00;;;;;;5055956;28;20398;-84
2022/06/04 12:15:32;;;;;;;3.53;2.00;;;25.80;78.70;;;;;;5061649;28;20372;-88
2022/06/04 12:18:23;;;;;;;3.05;1.77;;;25.80;79.60;;;;;;5059598;28;20500;-87
2022/06/04 12:24:16;;;;;;;2.53;1.80;;;25.70;78.50;;;;;;5057763;28;20426;-85
2022/06/04 12:26:44;;;;;;;3.33;1.77;;;25.70;79.50;;;;;;5060393;28;20927;-85
2022/06/04 12:29:28;;;;;;;2.33;1.75;;;25.80;80.50;;;;;;5059425;28;20447;-89
2022/06/04 12:32:04;;;;;;;4.32;1.60;;;25.90;79.30;;;;;;5062004;28;20394;-87
2022/06/04 12:34:36;;;;;;;6.72;2.03;;;25.90;79.90;;;;;;5062446;28;20727;-90
2022/06/04 12:37:03;;;;;;;7.13;2.30;;;25.90;80.70;;;;;;5065090;28;20397;-86
2022/06/04 12:39:38;;;;;;;4.32;1.90;;;26.20;79.70;;;;;;5063254;28;20385;-89
2022/06/04 12:42:25;;;;;;;2.53;1.70;;;26.50;79.90;;;;;;5064264;28;20372;-87
2022/06/04 12:44:58;;;;;;;1.57;1.47;;;26.40;78.10;;;;;;5060213;28;21081;-84
2022/06/04 12:47:29;;;;;;;1.92;1.67;;;26.50;77.80;;;;;;5063515;28;20739;-86
2022/06/04 12:50:16;;;;;;;1.90;1.42;;;26.50;78.60;;;;;;5061721;28;20388;-85
2022/06/04 12:53:09;;;;;;;1.63;1.52;;;26.60;78.60;;;;;;5062886;28;20900;-85
2022/06/04 12:55:57;;;;;;;1.98;1.67;;;26.80;76.60;;;;;;5066907;28;20446;-87
2022/06/04 12:58:38;;;;;;;2.85;1.90;;;26.10;76.90;;;;;;5064033;28;20407;-86
2022/06/04 13:01:11;;;;;;;1.92;1.50;;;25.90;79.30;;;;;;5058693;28;20431;-86
2022/06/04 13:03:40;;;;;;;4.00;1.80;;;26.10;80.20;;;;;;5062166;28;20412;-86
2022/06/04 13:06:14;;;;;;;2.25;1.50;;;26.30;77.50;;;;;;5057709;28;20377;-84
2022/06/04 13:08:53;;;;;;;2.67;1.80;;;25.90;77.80;;;;;;5050513;28;20499;-89
2022/06/04 13:11:59;;;;;;;2.92;1.70;;;25.90;80.60;;;;;;5064515;28;20386;-86
2022/06/04 13:14:38;;;;;;;9.43;2.20;;;26.20;82.40;;;;;;5065546;28;20786;-87
2022/06/04 13:17:28;;;;;;;2.47;1.77;;;25.90;79.00;;;;;;5065314;28;20475;-88
2022/06/04 13:20:07;;;;;;;3.28;2.08;;;26.00;78.90;;;;;;5050325;28;20380;-86
2022/06/04 13:22:37;;;;;;;6.88;1.83;;;26.00;80.00;;;;;;5063656;28;20409;-88
2022/06/04 13:25:17;;;;;;;4.18;1.70;;;25.90;79.80;;;;;;5067213;28;20394;-89
2022/06/04 13:27:51;;;;;;;2.35;1.77;;;25.70;79.00;;;;;;5065627;28;20382;-87
2022/06/04 13:30:34;;;;;;;2.60;1.83;;;25.40;77.70;;;;;;5050121;28;20387;-85
2022/06/04 13:33:15;;;;;;;3.40;1.75;;;25.40;77.10;;;;;;5063922;28;20408;-87